createdAt,value
2022-11-25T00:01:34.059Z,1.20
2022-11-25T00:04:02.277Z,1.20
2022-11-25T00:06:34.349Z,1.30
2022-11-25T00:09:10.038Z,1.40
2022-11-25T00:11:41.334Z,1.40
2022-11-25T00:14:14.219Z,1.40
2022-11-25T00:16:45.185Z,1.40
2022-11-25T00:24:15.996Z,1.30
2022-11-25T00:29:12.255Z,1.20
2022-11-25T00:31:41.344Z,1.20
2022-11-25T00:34:14.220Z,1.20
2022-11-25T00:39:16.595Z,1.30
2022-11-25T00:42:04.461Z,1.40
2022-11-25T00:44:41.975Z,1.40
2022-11-25T00:47:21.543Z,1.50
2022-11-25T00:49:53.384Z,1.50
2022-11-25T00:52:25.957Z,1.50
2022-11-25T00:54:54.001Z,1.40
2022-11-25T00:57:23.930Z,1.50
2022-11-25T00:59:51.421Z,1.50
2022-11-25T01:02:21.502Z,1.60
2022-11-25T01:07:17.496Z,1.70
2022-11-25T01:09:44.880Z,1.70
2022-11-25T01:12:12.143Z,1.60
2022-11-25T01:14:39.468Z,1.50
2022-11-25T01:17:06.641Z,1.40
2022-11-25T01:22:05.207Z,1.30
2022-11-25T01:24:32.295Z,1.30
2022-11-25T01:26:59.331Z,1.20
2022-11-25T01:31:56.723Z,1.10
2022-11-25T01:34:27.344Z,1.00
2022-11-25T01:36:57.351Z,1.00
2022-11-25T01:39:32.115Z,0.90
2022-11-25T01:42:01.081Z,0.90
2022-11-25T01:44:32.268Z,0.90
2022-11-25T01:47:25.851Z,0.80
2022-11-25T01:50:05.262Z,0.80
2022-11-25T01:52:43.504Z,0.90
2022-11-25T01:55:18.671Z,1.10
2022-11-25T01:58:16.387Z,1.10
2022-11-25T02:03:33.027Z,1.20
2022-11-25T02:06:36.005Z,1.10
2022-11-25T02:09:08.494Z,0.90
2022-11-25T02:11:40.344Z,0.80
2022-11-25T02:14:09.784Z,0.90
2022-11-25T02:16:36.946Z,1.00
2022-11-25T02:21:47.289Z,0.80
2022-11-25T02:24:43.428Z,0.70
2022-11-25T02:27:13.893Z,0.70
2022-11-25T02:29:44.740Z,0.60
2022-11-25T02:34:47.885Z,0.50
2022-11-25T02:37:19.040Z,0.70
2022-11-25T02:39:48.274Z,1.20
2022-11-25T02:42:19.988Z,1.60
2022-11-25T02:44:49.497Z,1.60
2022-11-25T02:47:17.377Z,1.50
2022-11-25T02:54:42.054Z,1.00
2022-11-25T02:57:09.025Z,0.90
2022-11-25T02:59:36.206Z,0.90
2022-11-25T03:04:31.621Z,0.80
2022-11-25T03:07:08.688Z,0.80
2022-11-25T03:09:35.674Z,0.80
2022-11-25T03:12:21.025Z,0.70
2022-11-25T03:19:48.127Z,0.50
2022-11-25T03:29:38.887Z,1.10
2022-11-25T03:32:09.513Z,1.30
2022-11-25T03:34:38.278Z,1.20
2022-11-25T03:39:34.194Z,0.90
2022-11-25T03:42:01.276Z,0.80
2022-11-25T03:44:28.300Z,0.80
2022-11-25T03:49:23.193Z,0.70
2022-11-25T03:51:50.284Z,0.70
2022-11-25T03:54:19.098Z,0.80
2022-11-25T03:57:14.659Z,0.80
2022-11-25T03:59:41.712Z,0.80
2022-11-25T04:02:09.063Z,0.80
2022-11-25T04:09:32.079Z,0.70
2022-11-25T04:12:19.919Z,0.70
2022-11-25T04:17:21.665Z,0.60
2022-11-25T04:22:17.620Z,0.70
2022-11-25T04:29:48.580Z,0.80
2022-11-25T04:32:16.316Z,0.70
2022-11-25T04:34:43.460Z,0.70
2022-11-25T04:37:10.779Z,0.70
2022-11-25T04:39:40.547Z,0.80
2022-11-25T04:42:36.360Z,0.90
2022-11-25T04:45:33.429Z,1.00
2022-11-25T04:48:00.116Z,0.80
2022-11-25T04:53:06.558Z,0.60
2022-11-25T04:58:05.044Z,0.50
2022-11-25T05:03:04.900Z,0.40
2022-11-25T05:05:33.316Z,0.40
2022-11-25T05:08:00.377Z,0.50
2022-11-25T05:12:55.649Z,0.50
2022-11-25T05:15:22.844Z,0.50
2022-11-25T05:20:26.417Z,0.60
2022-11-25T05:22:53.537Z,0.70
2022-11-25T05:28:05.309Z,0.80
2022-11-25T05:35:27.530Z,0.80
2022-11-25T05:43:04.163Z,0.90
2022-11-25T05:55:35.229Z,1.00
2022-11-25T06:00:33.774Z,1.30
2022-11-25T06:05:35.530Z,1.30
2022-11-25T06:12:58.762Z,0.90
2022-11-25T06:20:27.302Z,0.80
2022-11-25T06:22:54.579Z,0.80
2022-11-25T06:28:12.488Z,0.70
2022-11-25T06:30:40.323Z,0.70
2022-11-25T06:33:17.575Z,0.90
2022-11-25T06:35:46.414Z,0.90
2022-11-25T06:38:13.383Z,0.90
2022-11-25T06:40:40.351Z,1.00
2022-11-25T06:45:35.034Z,1.00
2022-11-25T06:52:56.970Z,1.10
2022-11-25T06:55:23.902Z,1.10
2022-11-25T06:58:08.417Z,1.10
2022-11-25T07:03:07.918Z,1.10
2022-11-25T07:05:34.943Z,1.10
2022-11-25T07:08:01.871Z,1.20
2022-11-25T07:15:24.276Z,1.20
2022-11-25T07:25:14.200Z,1.30
2022-11-25T07:32:56.436Z,1.30
2022-11-25T07:37:50.798Z,1.30
2022-11-25T07:40:17.841Z,1.30
2022-11-25T07:45:12.193Z,1.40
2022-11-25T07:47:44.534Z,1.40
2022-11-25T07:52:40.807Z,1.60
2022-11-25T07:55:08.827Z,1.70
2022-11-25T08:02:38.914Z,2.20
2022-11-25T08:10:04.839Z,2.40
2022-11-25T08:12:34.860Z,2.50
2022-11-25T08:17:29.243Z,2.50
2022-11-25T08:24:51.031Z,2.40
2022-11-25T08:29:45.702Z,2.60
2022-11-25T08:34:40.144Z,2.80
2022-11-25T08:37:09.085Z,3.00
2022-11-25T08:39:51.771Z,3.10
2022-11-25T08:42:19.723Z,3.20
2022-11-25T08:44:52.962Z,3.20
2022-11-25T08:47:20.014Z,3.30
2022-11-25T08:52:18.298Z,3.60
2022-11-25T08:57:12.934Z,3.90
2022-11-25T08:59:40.577Z,4.00
2022-11-25T09:03:44.900Z,4.20
2022-11-25T09:06:13.330Z,4.20
2022-11-25T09:08:43.218Z,4.40
2022-11-25T09:11:12.014Z,4.40
2022-11-25T09:13:39.439Z,4.50
2022-11-25T09:18:36.835Z,4.60
2022-11-25T09:21:14.626Z,4.50
2022-11-25T09:23:41.667Z,4.60
2022-11-25T09:28:45.292Z,4.90
2022-11-25T09:31:12.327Z,5.00
2022-11-25T09:38:37.707Z,5.70
2022-11-25T09:42:01.623Z,5.90
2022-11-25T09:45:02.736Z,6.20
2022-11-25T09:47:57.294Z,6.50
2022-11-25T09:50:46.188Z,7.10
2022-11-25T09:53:48.125Z,8.20
2022-11-25T09:56:33.456Z,7.50
2022-11-25T09:59:21.331Z,7.50
2022-11-25T10:02:02.149Z,7.20
2022-11-25T10:04:54.552Z,6.90
2022-11-25T10:07:38.646Z,7.00
2022-11-25T10:10:19.769Z,6.90
2022-11-25T10:12:49.321Z,6.70
2022-11-25T10:15:28.277Z,6.80
2022-11-25T10:18:03.611Z,6.80
2022-11-25T10:20:40.404Z,6.70
2022-11-25T10:23:32.718Z,6.80
2022-11-25T10:26:16.839Z,6.90
2022-11-25T10:29:06.200Z,8.00
2022-11-25T10:31:37.010Z,9.30
2022-11-25T10:34:40.684Z,9.30
2022-11-25T10:37:29.730Z,9.30
2022-11-25T10:39:56.883Z,9.40
2022-11-25T10:42:27.735Z,10.00
2022-11-25T10:44:55.709Z,9.50
2022-11-25T10:48:18.440Z,8.70
2022-11-25T10:51:05.844Z,8.70
2022-11-25T10:53:32.821Z,8.50
2022-11-25T10:56:18.216Z,8.80
2022-11-25T10:58:46.138Z,9.00
2022-11-25T11:01:25.291Z,8.60
2022-11-25T11:04:06.326Z,8.20
2022-11-25T11:06:45.892Z,8.30
2022-11-25T11:09:38.871Z,8.20
2022-11-25T11:12:28.469Z,7.90
2022-11-25T11:15:32.252Z,7.70
2022-11-25T11:18:37.360Z,7.60
2022-11-25T11:21:29.301Z,7.40
2022-11-25T11:23:57.361Z,7.30
2022-11-25T11:26:34.761Z,7.30
2022-11-25T11:29:21.065Z,7.40
2022-11-25T11:32:00.633Z,7.40
2022-11-25T11:35:23.841Z,7.40
2022-11-25T11:37:59.547Z,7.30
2022-11-25T11:40:46.385Z,7.30
2022-11-25T11:43:51.571Z,7.40
2022-11-25T11:47:31.510Z,7.50
2022-11-25T11:50:33.405Z,7.30
2022-11-25T11:53:54.600Z,7.40
2022-11-25T11:56:38.917Z,7.50
2022-11-25T11:59:26.865Z,7.50
2022-11-25T12:02:21.579Z,7.50
2022-11-25T12:05:10.562Z,7.60
2022-11-25T12:08:23.130Z,7.60
2022-11-25T12:11:03.734Z,7.70
2022-11-25T12:14:01.203Z,7.80
2022-11-25T12:16:45.227Z,7.90
2022-11-25T12:20:00.743Z,7.80
2022-11-25T12:22:52.146Z,7.80
2022-11-25T12:25:30.074Z,7.70
2022-11-25T12:28:19.646Z,7.70
2022-11-25T12:31:24.900Z,7.80
2022-11-25T12:34:23.329Z,7.90
2022-11-25T12:37:15.754Z,8.10
2022-11-25T12:40:13.859Z,8.10
2022-11-25T12:42:44.083Z,8.10
2022-11-25T12:45:26.455Z,8.10
2022-11-25T12:47:54.127Z,8.10
2022-11-25T12:51:10.617Z,8.30
2022-11-25T12:54:02.274Z,8.40
2022-11-25T12:57:27.298Z,8.60
2022-11-25T13:00:50.707Z,8.40
2022-11-25T13:04:15.383Z,8.30
2022-11-25T13:07:27.576Z,8.20
2022-11-25T13:10:27.263Z,8.10
2022-11-25T13:13:25.153Z,8.00
2022-11-25T13:15:55.386Z,7.80
2022-11-25T13:18:29.136Z,7.80
2022-11-25T13:21:06.360Z,7.90
2022-11-25T13:23:56.370Z,7.90
2022-11-25T13:26:35.973Z,7.90
2022-11-25T13:29:15.139Z,7.90
2022-11-25T13:32:11.965Z,7.80
2022-11-25T13:34:39.301Z,7.70
2022-11-25T13:37:39.935Z,7.60
2022-11-25T13:40:28.421Z,7.50
2022-11-25T13:42:57.184Z,7.50
2022-11-25T13:45:39.054Z,7.40
2022-11-25T13:48:26.888Z,7.30
2022-11-25T13:51:21.730Z,7.20
2022-11-25T13:53:58.044Z,7.10
2022-11-25T13:56:32.441Z,7.00
2022-11-25T13:59:11.740Z,6.90
2022-11-25T14:01:46.802Z,6.90
2022-11-25T14:04:16.396Z,6.90
2022-11-25T14:07:06.884Z,6.80
2022-11-25T14:10:22.831Z,6.80
2022-11-25T14:13:09.270Z,6.80
2022-11-25T14:16:23.756Z,6.80
2022-11-25T14:23:22.466Z,6.70
2022-11-25T14:26:16.323Z,6.60
2022-11-25T14:29:13.637Z,6.60
2022-11-25T14:31:52.115Z,6.50
2022-11-25T14:34:35.957Z,6.50
2022-11-25T14:37:41.838Z,6.50
2022-11-25T14:40:24.610Z,6.60
2022-11-25T14:43:03.589Z,6.50
2022-11-25T14:45:34.749Z,6.50
2022-11-25T14:48:21.800Z,6.50
2022-11-25T14:51:01.649Z,6.50
2022-11-25T14:53:30.782Z,6.50
2022-11-25T14:56:00.626Z,6.50
2022-11-25T15:01:18.768Z,6.40
2022-11-25T15:03:51.503Z,6.40
2022-11-25T15:06:21.049Z,6.40
2022-11-25T15:08:58.443Z,6.40
2022-11-25T15:11:33.603Z,6.40
2022-11-25T15:14:06.629Z,6.40
2022-11-25T15:16:42.047Z,6.40
2022-11-25T15:19:20.503Z,6.40
2022-11-25T15:24:54.470Z,6.40
2022-11-25T15:29:57.521Z,6.40
2022-11-25T15:32:32.734Z,6.40
2022-11-25T15:35:02.271Z,6.30
2022-11-25T15:37:29.916Z,6.40
2022-11-25T15:40:40.575Z,6.30
2022-11-25T15:43:25.802Z,6.30
2022-11-25T15:46:02.353Z,6.40
2022-11-25T15:48:46.487Z,6.30
2022-11-25T15:51:43.825Z,6.40
2022-11-25T15:54:20.111Z,6.30
2022-11-25T15:56:52.868Z,6.30
2022-11-25T15:59:55.715Z,6.40
2022-11-25T16:02:42.188Z,6.40
2022-11-25T16:05:16.012Z,6.40
2022-11-25T16:07:52.329Z,6.40
2022-11-25T16:10:50.558Z,6.40
2022-11-25T16:13:23.857Z,6.50
2022-11-25T16:16:30.497Z,6.50
2022-11-25T16:19:18.455Z,6.50
2022-11-25T16:22:03.171Z,6.50
2022-11-25T16:24:40.452Z,6.50
2022-11-25T16:27:23.587Z,6.50
2022-11-25T16:30:18.410Z,6.50
2022-11-25T16:32:45.976Z,6.50
2022-11-25T16:35:22.020Z,6.60
2022-11-25T16:37:49.934Z,6.60
2022-11-25T16:40:18.908Z,6.60
2022-11-25T16:42:50.377Z,6.60
2022-11-25T16:45:28.157Z,6.60
2022-11-25T16:47:55.657Z,6.70
2022-11-25T16:55:18.431Z,6.70
2022-11-25T16:57:45.928Z,6.70
2022-11-25T17:00:16.816Z,6.70
2022-11-25T17:02:44.677Z,6.80
2022-11-25T17:05:25.465Z,6.80
2022-11-25T17:07:53.110Z,6.80
2022-11-25T17:10:21.378Z,6.80
2022-11-25T17:12:49.784Z,6.80
2022-11-25T17:15:24.953Z,6.90
2022-11-25T17:17:52.523Z,6.90
2022-11-25T17:20:25.029Z,6.90
2022-11-25T17:22:53.915Z,6.90
2022-11-25T17:25:23.533Z,6.90
2022-11-25T17:27:51.707Z,6.90
2022-11-25T17:30:26.517Z,6.90
2022-11-25T17:33:04.092Z,6.90
2022-11-25T17:35:31.155Z,6.90
2022-11-25T17:38:00.894Z,6.90
2022-11-25T17:40:28.235Z,6.90
2022-11-25T17:42:55.492Z,6.90
2022-11-25T17:45:22.762Z,6.90
2022-11-25T17:50:25.997Z,6.90
2022-11-25T17:52:53.246Z,6.90
2022-11-25T17:55:22.748Z,6.90
2022-11-25T17:57:50.475Z,6.90
2022-11-25T18:00:21.883Z,6.90
2022-11-25T18:02:50.120Z,6.90
2022-11-25T18:05:22.770Z,6.90
2022-11-25T18:10:24.228Z,6.80
2022-11-25T18:12:55.388Z,6.80
2022-11-25T18:15:28.218Z,6.80
2022-11-25T18:18:20.279Z,6.80
2022-11-25T18:20:48.470Z,6.80
2022-11-25T18:23:15.827Z,6.80
2022-11-25T18:25:44.115Z,6.80
2022-11-25T18:28:25.224Z,6.70
2022-11-25T18:30:55.723Z,6.80
2022-11-25T18:35:50.215Z,6.80
2022-11-25T18:38:17.347Z,6.70
2022-11-25T18:40:48.920Z,6.70
2022-11-25T18:43:24.831Z,6.70
2022-11-25T18:45:54.236Z,6.70
2022-11-25T18:48:26.882Z,6.70
2022-11-25T18:50:56.912Z,6.70
2022-11-25T18:53:24.213Z,6.70
2022-11-25T18:55:51.383Z,6.70
2022-11-25T18:58:24.060Z,6.70
2022-11-25T19:00:52.615Z,6.70
2022-11-25T19:03:25.120Z,6.70
2022-11-25T19:05:58.547Z,6.80
2022-11-25T19:10:53.448Z,6.70
2022-11-25T19:13:32.595Z,6.70
2022-11-25T19:16:12.003Z,6.70
2022-11-25T19:18:39.569Z,6.70
2022-11-25T19:21:06.664Z,7.50
2022-11-25T19:23:35.862Z,6.70
2022-11-25T19:26:41.760Z,6.60
2022-11-25T19:29:31.824Z,6.60
2022-11-25T19:32:01.993Z,6.60
2022-11-25T19:34:44.753Z,6.50
2022-11-25T19:37:20.841Z,6.50
2022-11-25T19:39:51.304Z,6.40
2022-11-25T19:44:47.078Z,6.40
2022-11-25T19:47:24.971Z,6.40
2022-11-25T19:49:58.384Z,6.40
2022-11-25T19:52:37.645Z,6.40
2022-11-25T19:55:24.869Z,6.40
2022-11-25T19:57:53.069Z,6.40
2022-11-25T20:00:23.344Z,6.40
2022-11-25T20:02:56.027Z,6.30
2022-11-25T20:05:38.208Z,6.40
2022-11-25T20:10:34.122Z,6.40
2022-11-25T20:15:28.805Z,6.40
2022-11-25T20:18:00.829Z,6.30
2022-11-25T20:20:35.016Z,6.40
2022-11-25T20:23:16.082Z,6.40
2022-11-25T20:25:47.790Z,6.40
2022-11-25T20:28:26.245Z,6.40
2022-11-25T20:30:54.189Z,6.30
2022-11-25T20:33:24.736Z,6.40
2022-11-25T20:36:03.909Z,6.30
2022-11-25T20:38:33.601Z,6.30
2022-11-25T20:41:01.569Z,6.30
2022-11-25T20:43:32.674Z,6.30
2022-11-25T20:46:02.258Z,6.30
2022-11-25T20:48:30.112Z,6.30
2022-11-25T20:51:02.289Z,6.30
2022-11-25T20:53:32.153Z,6.30
2022-11-25T20:56:00.230Z,6.30
2022-11-25T20:58:32.759Z,6.30
2022-11-25T21:00:59.973Z,6.20
2022-11-25T21:03:27.239Z,6.20
2022-11-25T21:05:55.670Z,6.20
2022-11-25T21:08:30.723Z,6.30
2022-11-25T21:10:59.214Z,6.20
2022-11-25T21:13:30.210Z,6.30
2022-11-25T21:15:57.561Z,6.30
2022-11-25T21:18:25.498Z,6.20
2022-11-25T21:20:56.694Z,6.20
2022-11-25T21:23:31.091Z,6.20
2022-11-25T21:26:12.462Z,6.20
2022-11-25T21:28:44.083Z,6.10
2022-11-25T21:31:21.508Z,6.10
2022-11-25T21:33:49.651Z,6.20
2022-11-25T21:36:22.416Z,6.20
2022-11-25T21:38:54.373Z,6.20
2022-11-25T21:43:50.884Z,6.10
2022-11-25T21:46:24.760Z,6.20
2022-11-25T21:48:52.803Z,6.10
2022-11-25T21:53:50.801Z,6.10
2022-11-25T21:56:36.571Z,6.10
2022-11-25T21:59:07.507Z,6.10
2022-11-25T22:01:34.664Z,6.10
2022-11-25T22:04:01.707Z,6.20
2022-11-25T22:06:31.754Z,6.20
2022-11-25T22:08:58.806Z,6.20
2022-11-25T22:11:37.398Z,6.20
2022-11-25T22:14:28.544Z,6.20
2022-11-25T22:16:57.145Z,6.20
2022-11-25T22:19:27.970Z,6.20
2022-11-25T22:21:55.680Z,6.20
2022-11-25T22:24:23.119Z,6.20
2022-11-25T22:26:57.437Z,6.20
2022-11-25T22:29:34.185Z,6.30
2022-11-25T22:32:05.016Z,6.20
2022-11-25T22:34:35.451Z,6.30
2022-11-25T22:39:29.974Z,6.30
2022-11-25T22:44:45.668Z,6.30
2022-11-25T22:47:38.936Z,6.30
2022-11-25T22:50:31.175Z,6.30
2022-11-25T22:53:01.066Z,6.30
2022-11-25T22:55:32.577Z,6.30
2022-11-25T22:58:01.598Z,6.30
2022-11-25T23:00:37.198Z,6.40
2022-11-25T23:03:10.609Z,6.40
2022-11-25T23:05:39.625Z,6.40
2022-11-25T23:08:24.608Z,6.30
2022-11-25T23:10:53.625Z,6.40
2022-11-25T23:13:20.767Z,6.40
2022-11-25T23:15:59.903Z,6.40
2022-11-25T23:18:38.378Z,6.40
2022-11-25T23:21:23.417Z,6.30
2022-11-25T23:23:51.453Z,6.30
2022-11-25T23:26:18.382Z,6.30
2022-11-25T23:31:16.993Z,6.30
2022-11-25T23:33:51.733Z,6.40
2022-11-25T23:36:36.101Z,6.40
2022-11-25T23:39:03.848Z,6.40
2022-11-25T23:41:34.391Z,6.40
2022-11-25T23:44:29.589Z,6.40
2022-11-25T23:47:04.909Z,6.40
2022-11-25T23:49:39.509Z,6.40
2022-11-25T23:52:12.948Z,6.40
2022-11-25T23:54:46.641Z,6.40
2022-11-25T23:57:26.904Z,6.40
